createdAt,value
2023-03-26T00:01:23.713Z,100145.91
2023-03-26T00:03:27.747Z,100149.47
2023-03-26T00:05:32.147Z,100141.59
2023-03-26T00:07:34.987Z,100147.66
2023-03-26T00:09:39.336Z,100143.16
2023-03-26T00:11:43.022Z,100140.53
2023-03-26T00:13:46.793Z,100130.97
2023-03-26T00:15:49.612Z,100135.19
2023-03-26T00:17:54.133Z,100135.88
2023-03-26T00:19:59.673Z,100138.31
2023-03-26T00:22:03.661Z,100123.47
2023-03-26T00:24:10.129Z,100118.22
2023-03-26T00:26:16.329Z,100124.19
2023-03-26T00:28:22.256Z,100125.91
2023-03-26T00:30:25.308Z,100128.50
2023-03-26T00:32:29.629Z,100123.50
2023-03-26T00:34:34.375Z,100123.53
2023-03-26T00:36:37.392Z,100123.66
2023-03-26T00:38:40.274Z,100127.13
2023-03-26T00:40:45.570Z,100122.72
2023-03-26T00:42:49.733Z,100125.38
2023-03-26T00:44:54.925Z,100121.06
2023-03-26T00:46:57.753Z,100128.88
2023-03-26T00:49:01.890Z,100124.56
2023-03-26T00:51:05.800Z,100115.91
2023-03-26T00:53:12.012Z,100118.59
2023-03-26T00:55:15.995Z,100120.34
2023-03-26T00:57:34.532Z,100114.38
2023-03-26T00:59:40.442Z,100117.78
2023-03-26T01:01:44.856Z,100111.66
2023-03-26T01:04:04.862Z,100108.19
2023-03-26T01:06:13.655Z,100101.19
2023-03-26T01:08:25.986Z,100093.41
2023-03-26T01:10:29.996Z,100097.78
2023-03-26T01:12:33.015Z,100089.19
2023-03-26T01:14:36.178Z,100091.56
2023-03-26T01:16:44.918Z,100089.88
2023-03-26T01:18:49.127Z,100087.09
2023-03-26T01:20:58.489Z,100072.16
2023-03-26T01:23:06.200Z,100072.94
2023-03-26T01:25:10.601Z,100077.41
2023-03-26T01:27:24.210Z,100071.41
2023-03-26T01:29:34.184Z,100076.50
2023-03-26T01:31:46.284Z,100067.97
2023-03-26T01:33:53.252Z,100054.22
2023-03-26T01:36:02.451Z,100045.53
2023-03-26T01:38:18.503Z,100047.38
2023-03-26T01:40:28.019Z,100042.31
2023-03-26T01:42:37.171Z,100040.50
2023-03-26T01:44:46.607Z,100039.56
2023-03-26T01:46:50.902Z,100028.31
2023-03-26T01:48:53.909Z,100030.13
2023-03-26T01:50:58.780Z,100031.94
2023-03-26T01:53:01.671Z,100027.66
2023-03-26T01:55:06.444Z,100024.28
2023-03-26T01:57:18.643Z,100017.31
2023-03-26T01:59:46.343Z,100002.59
2023-03-26T02:01:59.159Z,99997.38
2023-03-26T02:04:12.260Z,100002.59
2023-03-26T02:06:21.386Z,100004.41
2023-03-26T02:08:35.583Z,100000.94
2023-03-26T02:10:44.088Z,99995.78
2023-03-26T02:12:48.594Z,99993.22
2023-03-26T02:14:52.962Z,99978.44
2023-03-26T02:16:57.084Z,99975.91
2023-03-26T02:19:00.371Z,99974.25
2023-03-26T02:21:05.316Z,99970.81
2023-03-26T02:23:08.765Z,99965.63
2023-03-26T02:25:13.918Z,99963.03
2023-03-26T02:27:18.401Z,99957.88
2023-03-26T02:29:22.770Z,99957.91
2023-03-26T02:31:27.212Z,99963.06
2023-03-26T02:33:31.155Z,99950.09
2023-03-26T02:35:34.388Z,99944.88
2023-03-26T02:37:38.961Z,99950.09
2023-03-26T02:39:49.273Z,99936.19
2023-03-26T02:42:01.474Z,99938.75
2023-03-26T02:44:06.392Z,99943.03
2023-03-26T02:46:29.086Z,99939.44
2023-03-26T02:48:44.200Z,99928.16
2023-03-26T02:50:54.594Z,99929.94
2023-03-26T02:53:16.254Z,99917.66
2023-03-26T02:55:23.421Z,99907.25
2023-03-26T02:57:29.078Z,99909.03
2023-03-26T02:59:31.825Z,99904.75
2023-03-26T03:01:56.134Z,99897.91
2023-03-26T03:04:01.384Z,99897.97
2023-03-26T03:06:11.214Z,99887.63
2023-03-26T03:08:19.338Z,99886.84
2023-03-26T03:10:37.744Z,99889.47
2023-03-26T03:12:45.667Z,99885.25
2023-03-26T03:14:48.484Z,99880.94
2023-03-26T03:16:51.572Z,99882.66
2023-03-26T03:18:57.833Z,99872.31
2023-03-26T03:21:07.369Z,99868.88
2023-03-26T03:23:10.160Z,99878.38
2023-03-26T03:25:17.405Z,99875.78
2023-03-26T03:27:23.782Z,99868.03
2023-03-26T03:29:33.545Z,99868.03
2023-03-26T03:31:56.475Z,99865.44
2023-03-26T03:34:21.667Z,99858.47
2023-03-26T03:36:30.304Z,99854.13
2023-03-26T03:38:40.241Z,99848.94
2023-03-26T03:40:44.783Z,99848.06
2023-03-26T03:42:47.996Z,99840.28
2023-03-26T03:44:58.031Z,99836.03
2023-03-26T03:47:33.028Z,99832.47
2023-03-26T03:49:37.329Z,99837.66
2023-03-26T03:51:41.009Z,99828.13
2023-03-26T03:53:56.533Z,99833.31
2023-03-26T03:56:29.081Z,99816.84
2023-03-26T03:58:58.208Z,99822.00
2023-03-26T04:01:06.972Z,99819.38
2023-03-26T04:03:33.121Z,99816.81
2023-03-26T04:05:38.617Z,99807.31
2023-03-26T04:07:41.508Z,99797.78
2023-03-26T04:09:44.308Z,99792.59
2023-03-26T04:11:52.325Z,99791.72
2023-03-26T04:14:15.334Z,99784.78
2023-03-26T04:16:43.975Z,99785.63
2023-03-26T04:18:46.718Z,99766.63
2023-03-26T04:20:52.286Z,99764.88
2023-03-26T04:23:00.484Z,99762.25
2023-03-26T04:25:05.169Z,99768.38
2023-03-26T04:27:17.019Z,99752.78
2023-03-26T04:29:23.967Z,99750.16
2023-03-26T04:31:30.371Z,99744.91
2023-03-26T04:33:35.939Z,99738.84
2023-03-26T04:35:41.694Z,99744.03
2023-03-26T04:37:47.683Z,99746.66
2023-03-26T04:39:55.391Z,99744.03
2023-03-26T04:41:58.959Z,99738.84
2023-03-26T04:44:08.893Z,99736.25
2023-03-26T04:46:38.044Z,99731.91
2023-03-26T04:48:50.995Z,99722.44
2023-03-26T04:50:54.109Z,99719.84
2023-03-26T04:52:59.927Z,99711.16
2023-03-26T04:55:25.630Z,99706.81
2023-03-26T04:57:46.098Z,99704.25
2023-03-26T05:00:14.776Z,99708.53
2023-03-26T05:02:18.830Z,99705.06
2023-03-26T05:04:26.662Z,99703.34
2023-03-26T05:06:30.310Z,99704.19
2023-03-26T05:08:34.711Z,99693.78
2023-03-26T05:10:37.627Z,99686.91
2023-03-26T05:12:46.435Z,99675.63
2023-03-26T05:14:53.618Z,99676.53
2023-03-26T05:17:10.645Z,99673.09
2023-03-26T05:19:15.079Z,99670.53
2023-03-26T05:21:18.047Z,99666.19
2023-03-26T05:23:21.020Z,99669.63
2023-03-26T05:25:31.431Z,99664.44
2023-03-26T05:27:36.132Z,99665.28
2023-03-26T05:29:38.868Z,99673.06
2023-03-26T05:31:41.682Z,99667.94
2023-03-26T05:33:44.568Z,99662.66
2023-03-26T05:35:50.581Z,99649.69
2023-03-26T05:37:53.490Z,99646.25
2023-03-26T05:39:59.794Z,99645.38
2023-03-26T05:42:33.254Z,99645.38
2023-03-26T05:44:58.907Z,99637.63
2023-03-26T05:47:04.509Z,99632.44
2023-03-26T05:49:07.633Z,99624.63
2023-03-26T05:51:12.366Z,99626.34
2023-03-26T05:53:19.186Z,99618.56
2023-03-26T05:55:40.757Z,99620.28
2023-03-26T05:58:08.189Z,99605.56
2023-03-26T06:00:29.528Z,99612.47
2023-03-26T06:02:32.930Z,99599.53
2023-03-26T06:05:09.814Z,99602.13
2023-03-26T06:07:39.021Z,99604.72
2023-03-26T06:09:53.876Z,99599.47
2023-03-26T06:11:56.892Z,99596.84
2023-03-26T06:14:01.643Z,99589.94
2023-03-26T06:16:05.268Z,99579.59
2023-03-26T06:18:11.009Z,99576.06
2023-03-26T06:20:25.533Z,99588.19
2023-03-26T06:22:29.472Z,99565.72
2023-03-26T06:24:48.546Z,99560.59
2023-03-26T06:27:09.832Z,99561.44
2023-03-26T06:29:49.048Z,99562.28
2023-03-26T06:32:19.758Z,99561.44
2023-03-26T06:34:43.479Z,99554.50
2023-03-26T06:36:48.638Z,99548.47
2023-03-26T06:38:51.692Z,99541.53
2023-03-26T06:40:55.050Z,99535.50
2023-03-26T06:43:08.606Z,99535.50
2023-03-26T06:45:34.514Z,99528.56
2023-03-26T06:48:09.770Z,99530.28
2023-03-26T06:50:35.623Z,99530.28
2023-03-26T06:52:57.823Z,99525.97
2023-03-26T06:55:15.772Z,99520.78
2023-03-26T06:57:42.644Z,99523.38
2023-03-26T07:00:13.437Z,99517.34
2023-03-26T07:02:37.272Z,99522.53
2023-03-26T07:04:59.379Z,99523.38
2023-03-26T07:07:21.722Z,99518.25
2023-03-26T07:09:53.809Z,99513.06
2023-03-26T07:12:26.977Z,99507.03
2023-03-26T07:14:53.007Z,99512.19
2023-03-26T07:16:59.088Z,99505.28
2023-03-26T07:19:24.777Z,99496.63
2023-03-26T07:21:28.224Z,99498.34
2023-03-26T07:23:31.584Z,99496.59
2023-03-26T07:25:54.978Z,99496.59
2023-03-26T07:28:11.503Z,99501.78
2023-03-26T07:30:48.019Z,99496.59
2023-03-26T07:33:17.029Z,99494.00
2023-03-26T07:36:07.906Z,99484.50
2023-03-26T07:38:40.890Z,99473.25
2023-03-26T07:41:09.712Z,99475.84
2023-03-26T07:43:58.056Z,99474.97
2023-03-26T07:46:29.684Z,99473.25
2023-03-26T07:49:00.001Z,99470.66
2023-03-26T07:51:19.953Z,99468.94
2023-03-26T07:53:30.152Z,99475.84
2023-03-26T07:55:53.630Z,99471.53
2023-03-26T07:58:33.469Z,99478.44
2023-03-26T08:01:10.044Z,99473.25
2023-03-26T08:03:26.788Z,99474.09
2023-03-26T08:05:33.556Z,99470.63
2023-03-26T08:08:07.403Z,99469.75
2023-03-26T08:10:22.504Z,99483.53
2023-03-26T08:12:47.287Z,99486.88
2023-03-26T08:14:58.271Z,99476.56
2023-03-26T08:17:06.732Z,99480.91
2023-03-26T08:19:28.576Z,99480.91
2023-03-26T08:21:37.988Z,99490.41
2023-03-26T08:24:01.528Z,99478.31
2023-03-26T08:26:10.049Z,99475.66
2023-03-26T08:28:24.123Z,99465.31
2023-03-26T08:30:28.237Z,99456.69
2023-03-26T08:32:31.591Z,99461.88
2023-03-26T08:34:34.480Z,99467.13
2023-03-26T08:36:37.286Z,99465.38
2023-03-26T08:38:40.052Z,99459.34
2023-03-26T08:41:17.032Z,99438.63
2023-03-26T08:43:48.965Z,99439.50
2023-03-26T08:46:23.214Z,99449.88
2023-03-26T08:49:00.461Z,99456.81
2023-03-26T08:51:44.800Z,99441.25
2023-03-26T08:54:36.152Z,99443.84
2023-03-26T08:56:53.087Z,99449.03
2023-03-26T08:59:20.056Z,99442.16
2023-03-26T09:02:07.850Z,99431.75
2023-03-26T09:04:42.739Z,99418.78
2023-03-26T09:07:14.252Z,99410.13
2023-03-26T09:09:59.125Z,99411.00
2023-03-26T09:12:52.678Z,99418.78
2023-03-26T09:15:35.043Z,99422.22
2023-03-26T09:18:28.618Z,99404.03
2023-03-26T09:24:19.708Z,99397.09
2023-03-26T09:26:27.886Z,99398.88
2023-03-26T09:29:14.485Z,99387.59
2023-03-26T09:31:48.211Z,99391.06
2023-03-26T09:34:00.500Z,99389.31
2023-03-26T09:36:22.340Z,99387.59
2023-03-26T09:38:46.074Z,99384.16
2023-03-26T09:40:59.709Z,99393.69
2023-03-26T09:43:26.541Z,99391.06
2023-03-26T09:45:54.498Z,99375.50
2023-03-26T09:48:39.791Z,99387.59
2023-03-26T09:50:55.185Z,99387.59
2023-03-26T09:53:09.333Z,99385.81
2023-03-26T09:55:29.919Z,99386.59
2023-03-26T09:57:53.821Z,99377.91
2023-03-26T10:00:23.996Z,99366.53
2023-03-26T10:02:45.925Z,99353.31
2023-03-26T10:05:41.462Z,99341.97
2023-03-26T10:08:09.347Z,99345.09
2023-03-26T10:10:22.678Z,99334.34
2023-03-26T10:12:34.709Z,99328.81
2023-03-26T10:14:45.241Z,99332.81
2023-03-26T10:17:01.385Z,99326.66
2023-03-26T10:19:22.135Z,99319.63
2023-03-26T10:21:36.018Z,99312.75
2023-03-26T10:24:07.905Z,99305.78
2023-03-26T10:26:41.689Z,99315.38
2023-03-26T10:29:20.260Z,99326.66
2023-03-26T10:31:41.367Z,99328.75
2023-03-26T10:33:54.992Z,99330.56
2023-03-26T10:36:13.275Z,99331.69
2023-03-26T10:38:23.365Z,99337.19
2023-03-26T10:40:32.146Z,99342.50
2023-03-26T10:42:56.466Z,99334.09
2023-03-26T10:45:15.033Z,99324.59
2023-03-26T10:47:39.115Z,99332.47
2023-03-26T10:50:22.650Z,99332.56
2023-03-26T10:52:35.662Z,99343.91
2023-03-26T10:54:49.514Z,99330.84
2023-03-26T10:56:52.714Z,99333.47
2023-03-26T10:58:57.343Z,99331.78
2023-03-26T11:01:04.694Z,99334.31
2023-03-26T11:03:43.982Z,99338.66
2023-03-26T11:05:54.006Z,99335.03
2023-03-26T11:08:04.719Z,99328.78
2023-03-26T11:10:12.272Z,99329.50
2023-03-26T11:12:28.465Z,99321.53
2023-03-26T11:14:39.723Z,99309.94
2023-03-26T11:16:55.337Z,99321.28
2023-03-26T11:19:05.532Z,99313.41
2023-03-26T11:21:19.056Z,99304.91
2023-03-26T11:23:36.458Z,99306.69
2023-03-26T11:25:49.397Z,99300.56
2023-03-26T11:28:07.073Z,99307.53
2023-03-26T11:30:22.270Z,99308.16
2023-03-26T11:32:27.115Z,99300.44
2023-03-26T11:34:37.939Z,99306.66
2023-03-26T11:36:45.096Z,99309.06
2023-03-26T11:38:50.316Z,99318.25
2023-03-26T11:41:00.344Z,99294.03
2023-03-26T11:43:27.068Z,99285.22
2023-03-26T11:45:33.873Z,99297.66
2023-03-26T11:47:41.654Z,99291.72
2023-03-26T11:49:50.067Z,99284.81
2023-03-26T11:51:53.345Z,99293.63
2023-03-26T11:53:57.654Z,99302.41
2023-03-26T11:56:04.067Z,99302.47
2023-03-26T11:58:24.237Z,99304.28
2023-03-26T12:00:30.212Z,99302.59
2023-03-26T12:02:40.313Z,99310.53
2023-03-26T12:04:45.642Z,99310.56
2023-03-26T12:06:57.650Z,99310.66
2023-03-26T12:09:00.738Z,99316.78
2023-03-26T12:11:09.284Z,99311.69
2023-03-26T12:13:29.478Z,99317.84
2023-03-26T12:15:38.811Z,99310.97
2023-03-26T12:17:42.240Z,99312.72
2023-03-26T12:19:46.618Z,99312.72
2023-03-26T12:21:51.098Z,99307.53
2023-03-26T12:24:00.231Z,99298.78
2023-03-26T12:26:15.041Z,99304.81
2023-03-26T12:28:19.792Z,99289.06
2023-03-26T12:30:23.591Z,99282.81
2023-03-26T12:32:43.387Z,99287.81
2023-03-26T12:34:50.586Z,99276.50
2023-03-26T12:36:55.993Z,99281.47
2023-03-26T12:39:17.115Z,99271.72
2023-03-26T12:44:42.183Z,99259.19
2023-03-26T12:44:50.058Z,99250.09
2023-03-26T12:47:56.512Z,99252.44
2023-03-26T12:49:12.496Z,99247.94
2023-03-26T12:51:27.676Z,99259.00
2023-03-26T12:53:40.954Z,99253.75
2023-03-26T12:56:00.249Z,99253.03
2023-03-26T12:58:15.431Z,99254.28
2023-03-26T13:00:28.826Z,99255.91
2023-03-26T13:02:50.752Z,99253.19
2023-03-26T13:05:09.603Z,99267.22
2023-03-26T13:07:22.310Z,99253.31
2023-03-26T13:09:47.728Z,99250.72
2023-03-26T13:12:03.714Z,99245.34
2023-03-26T13:14:19.524Z,99244.28
2023-03-26T13:16:29.784Z,99238.13
2023-03-26T13:18:43.514Z,99232.81
2023-03-26T13:20:52.595Z,99241.34
2023-03-26T13:23:03.225Z,99236.75
2023-03-26T13:25:20.594Z,99236.38
2023-03-26T13:27:42.877Z,99234.38
2023-03-26T13:29:56.487Z,99228.03
2023-03-26T13:32:09.264Z,99225.97
2023-03-26T13:34:23.074Z,99208.31
2023-03-26T13:36:37.641Z,99218.84
2023-03-26T13:38:58.545Z,99229.47
2023-03-26T13:41:08.273Z,99239.66
2023-03-26T13:43:27.881Z,99223.34
2023-03-26T13:45:45.446Z,99222.75
2023-03-26T13:47:51.886Z,99221.00
2023-03-26T13:50:00.507Z,99216.91
2023-03-26T13:52:09.941Z,99221.25
2023-03-26T13:54:19.646Z,99217.91
2023-03-26T13:56:28.740Z,99227.31
2023-03-26T13:58:39.436Z,99226.50
2023-03-26T14:01:04.746Z,99225.00
2023-03-26T14:03:17.405Z,99225.19
2023-03-26T14:05:25.843Z,99230.41
2023-03-26T14:07:35.409Z,99226.09
2023-03-26T14:09:45.587Z,99227.84
2023-03-26T14:11:59.364Z,99231.34
2023-03-26T14:14:09.876Z,99227.06
2023-03-26T14:16:18.545Z,99223.75
2023-03-26T14:18:32.252Z,99221.28
2023-03-26T14:21:10.821Z,99214.25
2023-03-26T14:23:35.266Z,99214.16
2023-03-26T14:26:05.634Z,99209.09
2023-03-26T14:28:24.255Z,99217.69
2023-03-26T14:30:56.472Z,99216.81
2023-03-26T14:33:27.433Z,99214.38
2023-03-26T14:35:38.509Z,99213.63
2023-03-26T14:38:01.473Z,99223.28
2023-03-26T14:40:31.922Z,99225.09
2023-03-26T14:42:42.549Z,99231.50
2023-03-26T14:45:15.523Z,99228.31
2023-03-26T14:47:21.553Z,99220.50
2023-03-26T14:49:53.686Z,99231.91
2023-03-26T14:52:04.625Z,99224.16
2023-03-26T14:54:12.065Z,99231.22
2023-03-26T14:56:43.319Z,99230.56
2023-03-26T14:59:17.877Z,99237.66
2023-03-26T15:01:27.312Z,99246.31
2023-03-26T15:04:03.991Z,99250.78
2023-03-26T15:06:41.119Z,99241.88
2023-03-26T15:09:11.622Z,99246.19
2023-03-26T15:11:26.003Z,99235.88
2023-03-26T15:13:50.065Z,99246.44
2023-03-26T15:16:25.590Z,99243.78
2023-03-26T15:19:13.940Z,99243.25
2023-03-26T15:21:53.385Z,99243.19
2023-03-26T15:24:25.497Z,99249.22
2023-03-26T15:27:08.310Z,99254.47
2023-03-26T15:29:33.968Z,99257.88
2023-03-26T15:32:16.109Z,99264.06
2023-03-26T15:34:51.551Z,99253.69
2023-03-26T15:37:42.343Z,99263.13
2023-03-26T15:40:08.250Z,99264.13
2023-03-26T15:42:18.554Z,99264.13
2023-03-26T15:44:40.979Z,99266.84
2023-03-26T15:47:19.176Z,99269.47
2023-03-26T15:49:31.556Z,99269.56
2023-03-26T15:51:52.165Z,99293.78
2023-03-26T15:54:00.966Z,99293.03
2023-03-26T15:56:27.375Z,99302.59
2023-03-26T15:58:34.614Z,99295.66
2023-03-26T16:00:45.254Z,99287.03
2023-03-26T16:03:00.104Z,99309.63
2023-03-26T16:05:26.475Z,99300.97
2023-03-26T16:07:55.251Z,99308.78
2023-03-26T16:10:18.191Z,99312.22
2023-03-26T16:12:33.982Z,99312.25
2023-03-26T16:14:46.768Z,99324.41
2023-03-26T16:16:59.545Z,99320.13
2023-03-26T16:19:41.126Z,99326.16
2023-03-26T16:21:56.193Z,99332.16
2023-03-26T16:24:18.792Z,99324.41
2023-03-26T16:26:26.451Z,99329.63
2023-03-26T16:28:33.494Z,99344.34
2023-03-26T16:30:36.930Z,99346.09
2023-03-26T16:32:43.026Z,99348.69
2023-03-26T16:34:53.938Z,99350.41
2023-03-26T16:37:00.452Z,99349.53
2023-03-26T16:39:25.256Z,99346.06
2023-03-26T16:41:31.247Z,99342.63
2023-03-26T16:43:45.082Z,99336.59
2023-03-26T16:45:53.697Z,99344.31
2023-03-26T16:48:07.785Z,99347.75
2023-03-26T16:50:19.883Z,99350.38
2023-03-26T16:52:31.232Z,99348.66
2023-03-26T16:54:46.010Z,99349.50
2023-03-26T16:56:59.567Z,99354.72
2023-03-26T16:59:09.352Z,99351.25
2023-03-26T17:01:30.207Z,99339.97
2023-03-26T17:03:54.505Z,99350.34
2023-03-26T17:06:06.340Z,99360.78
2023-03-26T17:08:35.974Z,99364.22
2023-03-26T17:10:48.253Z,99357.31
2023-03-26T17:12:56.544Z,99354.72
2023-03-26T17:15:08.451Z,99369.41
2023-03-26T17:17:26.114Z,99365.97
2023-03-26T17:19:36.550Z,99365.09
2023-03-26T17:21:55.503Z,99363.34
2023-03-26T17:24:07.219Z,99363.34
2023-03-26T17:26:24.666Z,99359.00
2023-03-26T17:28:49.405Z,99359.88
2023-03-26T17:31:03.188Z,99349.50
2023-03-26T17:33:16.352Z,99366.81
2023-03-26T17:35:35.837Z,99361.63
2023-03-26T17:37:45.564Z,99363.34
2023-03-26T17:40:36.544Z,99347.75
2023-03-26T17:43:04.865Z,99365.09
2023-03-26T17:45:17.611Z,99356.44
2023-03-26T17:47:34.212Z,99357.28
2023-03-26T17:49:40.591Z,99361.63
2023-03-26T17:51:50.386Z,99363.38
2023-03-26T17:53:53.345Z,99356.44
2023-03-26T17:56:00.994Z,99359.91
2023-03-26T17:58:07.124Z,99361.63
2023-03-26T18:00:18.221Z,99355.56
2023-03-26T18:02:28.634Z,99354.69
2023-03-26T18:04:35.690Z,99354.66
2023-03-26T18:06:55.471Z,99349.50
2023-03-26T18:09:11.394Z,99359.88
2023-03-26T18:11:52.581Z,99361.63
2023-03-26T18:14:29.699Z,99369.41
2023-03-26T18:16:39.633Z,99359.94
2023-03-26T18:18:49.506Z,99373.78
2023-03-26T18:20:54.579Z,99370.28
2023-03-26T18:22:57.573Z,99378.09
2023-03-26T18:25:03.075Z,99372.91
2023-03-26T18:27:12.276Z,99379.84
2023-03-26T18:29:23.708Z,99376.38
2023-03-26T18:31:27.885Z,99374.66
2023-03-26T18:33:42.817Z,99372.91
2023-03-26T18:35:47.295Z,99367.72
2023-03-26T18:37:53.324Z,99377.22
2023-03-26T18:39:59.329Z,99368.56
2023-03-26T18:42:02.297Z,99378.13
2023-03-26T18:44:07.273Z,99370.31
2023-03-26T18:46:13.259Z,99366.88
2023-03-26T18:48:20.451Z,99369.47
2023-03-26T18:50:27.751Z,99364.28
2023-03-26T18:52:32.992Z,99363.41
2023-03-26T18:54:37.122Z,99353.91
2023-03-26T18:56:41.880Z,99358.22
2023-03-26T18:58:51.986Z,99360.81
2023-03-26T19:00:59.688Z,99353.03
2023-03-26T19:03:06.902Z,99350.44
2023-03-26T19:05:15.120Z,99345.25
2023-03-26T19:07:23.293Z,99342.63
2023-03-26T19:09:31.945Z,99341.78
2023-03-26T19:11:40.216Z,99343.50
2023-03-26T19:13:43.102Z,99344.38
2023-03-26T19:15:47.364Z,99346.97
2023-03-26T19:17:56.542Z,99340.91
2023-03-26T19:20:01.673Z,99346.97
2023-03-26T19:22:06.952Z,99352.16
2023-03-26T19:24:11.867Z,99353.03
2023-03-26T19:26:14.841Z,99356.47
2023-03-26T19:28:20.949Z,99356.50
2023-03-26T19:30:30.097Z,99360.81
2023-03-26T19:32:34.433Z,99369.47
2023-03-26T19:34:40.434Z,99365.97
2023-03-26T19:36:58.010Z,99367.66
2023-03-26T19:39:12.567Z,99370.25
2023-03-26T19:41:21.975Z,99371.13
2023-03-26T19:43:26.278Z,99365.06
2023-03-26T19:45:29.823Z,99365.91
2023-03-26T19:47:52.023Z,99377.16
2023-03-26T19:50:01.202Z,99371.09
2023-03-26T19:52:13.565Z,99364.19
2023-03-26T19:54:19.122Z,99360.72
2023-03-26T19:56:22.814Z,99372.78
2023-03-26T19:58:27.164Z,99372.75
2023-03-26T20:00:30.579Z,99366.66
2023-03-26T20:02:33.471Z,99374.44
2023-03-26T20:04:36.365Z,99372.69
2023-03-26T20:06:43.698Z,99372.66
2023-03-26T20:08:50.523Z,99369.16
2023-03-26T20:10:54.696Z,99386.44
2023-03-26T20:12:58.337Z,99378.66
2023-03-26T20:15:01.914Z,99383.00
2023-03-26T20:17:05.693Z,99384.78
2023-03-26T20:19:08.766Z,99387.38
2023-03-26T20:21:12.828Z,99379.63
2023-03-26T20:23:17.542Z,99384.00
2023-03-26T20:25:25.633Z,99385.75
2023-03-26T20:27:29.954Z,99390.91
2023-03-26T20:29:32.881Z,99390.00
2023-03-26T20:31:35.739Z,99399.53
2023-03-26T20:33:39.550Z,99397.84
2023-03-26T20:35:43.061Z,99392.66
2023-03-26T20:37:46.059Z,99387.50
2023-03-26T20:39:48.888Z,99390.94
2023-03-26T20:41:54.608Z,99394.34
2023-03-26T20:43:57.654Z,99395.19
2023-03-26T20:46:00.662Z,99391.72
2023-03-26T20:48:03.621Z,99406.41
2023-03-26T20:50:07.531Z,99399.50
2023-03-26T20:52:14.092Z,99406.41
2023-03-26T20:54:18.893Z,99405.56
2023-03-26T20:56:22.136Z,99398.63
2023-03-26T20:58:31.402Z,99403.88
2023-03-26T21:00:37.062Z,99412.56
2023-03-26T21:02:41.969Z,99405.63
2023-03-26T21:04:47.253Z,99411.69
2023-03-26T21:06:50.834Z,99414.34
2023-03-26T21:08:55.046Z,99420.38
2023-03-26T21:11:01.968Z,99416.09
2023-03-26T21:13:08.500Z,99422.09
2023-03-26T21:15:22.825Z,99427.22
2023-03-26T21:17:27.091Z,99420.28
2023-03-26T21:19:30.455Z,99425.44
2023-03-26T21:21:47.466Z,99432.38
2023-03-26T21:23:59.248Z,99435.84
2023-03-26T21:26:07.649Z,99442.78
2023-03-26T21:28:32.229Z,99441.91
2023-03-26T21:30:44.388Z,99447.09
2023-03-26T21:32:48.048Z,99449.69
2023-03-26T21:34:58.160Z,99451.44
2023-03-26T21:37:03.001Z,99452.25
2023-03-26T21:39:06.485Z,99454.88
2023-03-26T21:41:17.141Z,99450.53
2023-03-26T21:43:21.405Z,99457.41
2023-03-26T21:45:24.833Z,99458.28
2023-03-26T21:47:29.563Z,99463.41
2023-03-26T21:49:33.098Z,99463.47
2023-03-26T21:51:36.652Z,99466.06
2023-03-26T21:53:39.972Z,99466.94
2023-03-26T21:55:54.590Z,99465.22
2023-03-26T21:58:23.019Z,99469.59
2023-03-26T22:00:41.125Z,99477.28
2023-03-26T22:03:05.239Z,99479.84
2023-03-26T22:05:15.319Z,99485.84
2023-03-26T22:07:21.626Z,99487.63
2023-03-26T22:09:33.883Z,99495.41
2023-03-26T22:11:38.890Z,99504.09
2023-03-26T22:13:42.145Z,99501.44
2023-03-26T22:15:46.087Z,99509.22
2023-03-26T22:17:53.634Z,99514.47
2023-03-26T22:19:58.198Z,99510.13
2023-03-26T22:22:01.570Z,99529.91
2023-03-26T22:24:06.908Z,99526.47
2023-03-26T22:26:09.735Z,99528.25
2023-03-26T22:28:12.906Z,99536.06
2023-03-26T22:30:16.425Z,99546.44
2023-03-26T22:32:19.220Z,99561.94
2023-03-26T22:34:23.007Z,99566.16
2023-03-26T22:36:27.330Z,99562.78
2023-03-26T22:38:30.633Z,99574.94
2023-03-26T22:40:33.366Z,99578.31
2023-03-26T22:42:36.532Z,99580.91
2023-03-26T22:44:40.073Z,99596.47
2023-03-26T22:46:44.013Z,99597.22
2023-03-26T22:48:48.265Z,99604.84
2023-03-26T22:50:58.364Z,99613.59
2023-03-26T22:53:02.511Z,99618.84
2023-03-26T22:55:05.842Z,99624.78
2023-03-26T22:57:08.781Z,99626.41
2023-03-26T22:59:11.682Z,99642.84
2023-03-26T23:01:17.546Z,99640.25
2023-03-26T23:03:21.848Z,99653.94
2023-03-26T23:05:38.671Z,99658.22
2023-03-26T23:07:42.259Z,99664.28
2023-03-26T23:09:46.439Z,99664.31
2023-03-26T23:11:49.359Z,99672.88
2023-03-26T23:13:54.752Z,99675.19
2023-03-26T23:15:57.873Z,99672.69
2023-03-26T23:18:01.912Z,99676.19
2023-03-26T23:20:13.529Z,99683.03
2023-03-26T23:22:16.659Z,99691.78
2023-03-26T23:24:19.707Z,99692.59
2023-03-26T23:26:24.189Z,99697.75
2023-03-26T23:28:27.515Z,99708.97
2023-03-26T23:30:30.407Z,99713.41
2023-03-26T23:32:37.635Z,99723.66
2023-03-26T23:34:52.328Z,99717.81
2023-03-26T23:36:55.542Z,99723.72
2023-03-26T23:38:58.854Z,99736.78
2023-03-26T23:41:01.622Z,99737.66
2023-03-26T23:43:05.791Z,99759.91
2023-03-26T23:45:09.329Z,99757.22
2023-03-26T23:47:12.122Z,99765.13
2023-03-26T23:49:15.212Z,99766.81
2023-03-26T23:51:19.795Z,99781.44
2023-03-26T23:53:24.693Z,99782.97
2023-03-26T23:55:28.258Z,99794.16
2023-03-26T23:57:31.808Z,99796.13
2023-03-26T23:59:36.093Z,99805.59
